Time Latitude Longitude Accuracy (66% radius in meters) Altitude (meters) Speed (km/hour) Bearing (degrees) Battery (%) GPS flag
11:23:37 57.730912 28.348378 20 33.9 0 72.660003662109 18 1 delete
11:23:28 57.731262 28.348703 20 33.9 2.0110197067261 29.110000610352 18 1 delete
11:23:15 57.731113 28.348272 20 33.6 2.386766910553 41.849998474121 18 1 delete
11:22:54 57.731078 28.347802 20 33.9 0 244.19999694824 18 1 delete
11:16:57 57.730763 28.348115 20 35.9 0 310.70001220703 18 1 delete
11:16:04 57.730670 28.347817 20 32.8 0 356.45001220703 20 1 delete
11:13:59 57.730647 28.347478 20 28.2 0 339.01000976562 20 1 delete
11:12:57 57.730600 28.348007 20 28.4 0 355.32000732422 20 1 delete
11:10:17 57.730818 28.347672 20 30.1 1.1884936094284 303.95001220703 20 1 delete
11:07:28 57.730597 28.347870 20 29.7 0 143.74000549316 20 1 delete
11:06:11 57.730952 28.347675 20 29.1 1.7541732788086 311.26000976562 20 1 delete
11:02:52 57.730695 28.347893 20 28.4 0 152.33000183105 20 1 delete
10:55:31 57.730637 28.348252 20 28.2 0 152.33000183105 24 1 delete
10:54:06 57.730560 28.347847 20 30.6 0 37.009998321533 24 1 delete
10:53:47 57.730533 28.347440 20 30.5 1.4180597066879 196.16000366211 24 1 delete
10:50:52 57.730855 28.347653 20 30.5 3.2257642745972 359.17001342773 24 1 delete
10:47:04 57.730410 28.348073 20 27.7 0 111.87000274658 24 1 delete
10:45:15 57.730455 28.347702 20 25.8 0 275.79000854492 24 1 delete
10:43:55 57.730707 28.347763 20 21.1 0 275.79000854492 24 1 delete
10:42:56 57.730655 28.348127 20 20.1 1.8560882806778 237.03999328613 24 1 delete
10:42:47 57.730757 28.348670 20 21.2 2.914871931076 186.5299987793 24 1 delete
10:42:38 57.731082 28.348838 20 22.3 2.1757309436798 191.86999511719 24 1 delete
10:42:29 57.731375 28.348732 20 23 0 208.5 24 1 delete
10:42:14 57.731530 28.349283 20 24.1 2.180878162384 253.41000366211 24 1 delete
10:42:01 57.731678 28.349728 20 25.4 2.0815367698669 210.60000610352 24 1 delete
10:41:42 57.731785 28.349450 20 26.6 2.1324942111969 169.11999511719 24 1 delete
10:41:34 57.732073 28.349090 20 27 2.4696371555328 145.00999450684 24 1 delete
10:41:29 57.732337 28.348747 20 27.4 2.1417591571808 153.7200012207 24 1 delete
10:41:21 57.732650 28.348307 20 27.7 0 320.2200012207 24 1 delete
10:40:53 57.732805 28.348118 20 28.3 1.4381338357925 329.86999511719 24 1 delete
10:40:41 57.732463 28.348080 20 28.3 0 46.580001831055 24 1 delete
10:40:37 57.732168 28.347943 20 28.3 0 46.580001831055 24 1 delete
10:40:29 57.731845 28.347808 20 28.3 1.4932091236115 112.59999847412 24 1 delete
10:40:17 57.731925 28.347222 20 28.3 1.3825439214706 120.91000366211 24 1 delete
10:39:30 57.731623 28.345933 20 29.1 0 81.730003356934 24 1 delete
10:38:50 57.731638 28.345375 20 31.7 1.1740814447403 221.33000183105 24 1 delete
10:38:28 57.731840 28.345575 20 33.6 4.0220394134521 255.44999694824 24 1 delete
10:38:16 57.731952 28.345980 20 33.9 4.4260964393616 265.98999023438 24 1 delete
10:38:00 57.732067 28.346412 20 34 0 357.4700012207 24 1 delete
10:37:30 57.731982 28.346853 20 34.3 0 357.4700012207 24 1 delete
10:37:21 57.731848 28.346392 20 34.1 0 357.4700012207 24 1 delete
10:36:40 57.731540 28.346320 20 34.8 0 2.8399999141693 24 1 delete
10:36:28 57.731203 28.346270 20 35.6 0 285.04000854492 28 1 delete
10:36:12 57.730887 28.346127 20 36.7 0 285.04000854492 28 1 delete
10:35:37 57.730650 28.345993 20 38.1 1.1612132787704 15.64999961853 28 1 delete
10:35:25 57.730325 28.345977 20 38.6 2.169554233551 353.57000732422 28 1 delete
10:35:15 57.730035 28.345960 20 39.4 2.718248128891 338.04000854492 28 1 delete
10:35:07 57.729685 28.345997 20 40.1 0 357.5299987793 28 1 delete
10:34:50 57.729323 28.345608 20 40.3 0 108.76000213623 28 1 delete
10:34:30 57.729410 28.345113 20 41.1 2.3836786746979 125.40000152588 28 1 delete